Time;durP1;ratioP1;P1;durP2;ratioP2;P2;SDS_P1;SDS_P2;PMS_P1;PMS_P2;Temp;Humidity;BMP_temperature;BMP_pressure;BME280_temperature;BME280_humidity;BME280_pressure;Samples;Min_cycle;Max_cycle;Signal;HPM_P1;HPM_P2
2022/03/22 00:01:44;;;;;;;49.10;24.85;;;;;;;7.42;73.44;103164.38;5025045;28;20117;-59
2022/03/22 00:04:10;;;;;;;47.65;26.88;;;;;;;7.42;73.54;103161.75;5025928;28;20021;-60
2022/03/22 00:06:35;;;;;;;49.58;27.83;;;;;;;7.38;73.81;103159.94;5026021;28;20017;-61
2022/03/22 00:09:01;;;;;;;48.15;28.13;;;;;;;7.37;73.86;103158.19;5008573;28;20083;-58
2022/03/22 00:11:26;;;;;;;50.00;28.10;;;;;;;7.36;73.41;103153.78;5024288;28;20029;-59
2022/03/22 00:13:51;;;;;;;48.00;27.45;;;;;;;7.37;74.04;103160.81;5025195;28;20468;-60
2022/03/22 00:16:17;;;;;;;49.03;27.13;;;;;;;7.39;73.93;103164.31;5023862;28;20030;-60
2022/03/22 00:18:42;;;;;;;49.63;27.80;;;;;;;7.39;73.88;103157.34;5024918;28;20033;-60
2022/03/22 00:21:07;;;;;;;51.80;28.58;;;;;;;7.41;73.82;103152.97;5024912;28;20420;-58
2022/03/22 00:23:34;;;;;;;50.83;27.98;;;;;;;7.43;73.71;103155.63;5025573;28;20040;-61
2022/03/22 00:25:59;;;;;;;49.28;27.70;;;;;;;7.44;73.78;103153.03;5024952;28;20029;-59
2022/03/22 00:28:24;;;;;;;50.42;29.02;;;;;;;7.43;73.88;103164.41;5024989;28;20037;-58
2022/03/22 00:30:50;;;;;;;50.13;28.80;;;;;;;7.38;74.21;103146.81;5024984;28;20039;-61
2022/03/22 00:33:15;;;;;;;55.28;29.58;;;;;;;7.33;74.41;103163.38;5024498;28;20064;-60
2022/03/22 00:35:41;;;;;;;51.47;29.10;;;;;;;7.36;74.45;103164.25;5025730;28;20476;-59
2022/03/22 00:38:08;;;;;;;46.92;27.88;;;;;;;7.35;74.48;103159.88;5042243;28;20086;-62
2022/03/22 00:40:34;;;;;;;48.00;26.17;;;;;;;7.29;74.37;103164.16;5045475;28;20107;-61
2022/03/22 00:43:00;;;;;;;48.92;28.02;;;;;;;7.21;74.47;103171.00;5045065;28;20052;-60
2022/03/22 00:45:27;;;;;;;51.95;29.30;;;;;;;7.16;74.54;103164.78;5031426;28;20078;-58
2022/03/22 00:47:54;;;;;;;47.20;28.02;;;;;;;7.12;74.81;103163.88;5025025;28;20030;-60
2022/03/22 00:50:21;;;;;;;48.55;25.98;;;;;;;7.00;74.98;103163.63;5006837;28;20025;-60
2022/03/22 00:52:47;;;;;;;45.55;25.48;;;;;;;6.92;75.42;103158.25;5025018;28;20655;-60
2022/03/22 00:55:13;;;;;;;44.45;26.45;;;;;;;6.83;75.66;103159.84;5025609;28;20108;-64
2022/03/22 00:57:40;;;;;;;50.83;28.98;;;;;;;6.79;75.96;103163.28;5007031;28;20014;-59
2022/03/22 01:00:09;;;;;;;52.08;30.20;;;;;;;6.81;76.13;103156.31;5024387;28;20037;-60
2022/03/22 01:02:40;;;;;;;48.70;28.95;;;;;;;6.77;76.36;103156.25;5026463;28;20103;-60
2022/03/22 01:05:11;;;;;;;46.95;26.52;;;;;;;6.72;76.40;103158.75;5029364;28;20022;-59
2022/03/22 01:07:37;;;;;;;45.35;26.52;;;;;;;6.64;77.00;103163.84;5029461;28;20071;-60
2022/03/22 01:10:07;;;;;;;48.20;27.63;;;;;;;6.59;77.18;103157.63;5029136;28;20453;-58
2022/03/22 01:12:34;;;;;;;47.08;26.83;;;;;;;6.55;77.18;103154.06;5028737;28;20021;-60
2022/03/22 01:14:59;;;;;;;51.08;26.75;;;;;;;6.54;77.41;103154.91;5027346;28;20101;-61
2022/03/22 01:17:24;;;;;;;51.17;27.60;;;;;;;6.53;77.50;103155.75;5039795;28;20115;-61
2022/03/22 01:19:50;;;;;;;52.15;28.52;;;;;;;6.52;77.97;103154.00;5049258;28;20108;-61
2022/03/22 01:22:16;;;;;;;52.22;27.13;;;;;;;6.50;77.80;103155.69;5047202;28;21871;-62
2022/03/22 01:24:42;;;;;;;51.08;26.48;;;;;;;6.52;77.86;103156.63;5031356;28;20095;-62
2022/03/22 01:27:08;;;;;;;43.45;24.30;;;;;;;6.52;77.83;103154.00;5047877;28;20491;-60
2022/03/22 01:29:33;;;;;;;45.10;24.92;;;;;;;6.53;77.79;103154.91;5047721;28;20083;-64
2022/03/22 01:31:59;;;;;;;47.25;25.90;;;;;;;6.51;77.91;103154.88;5049098;28;20479;-60
2022/03/22 01:34:25;;;;;;;48.17;25.85;;;;;;;6.55;77.95;103153.16;5043685;28;20122;-60
2022/03/22 01:36:50;;;;;;;52.92;30.35;;;;;;;6.62;77.80;103154.19;5027991;28;20469;-61
2022/03/22 01:39:15;;;;;;;60.53;33.33;;;;;;;6.59;78.47;103156.75;5027441;28;20024;-61
2022/03/22 01:41:41;;;;;;;58.72;32.03;;;;;;;6.64;78.40;103149.84;5027758;28;20022;-59
2022/03/22 01:44:06;;;;;;;55.85;30.33;;;;;;;6.65;78.03;103147.25;5028261;28;20021;-60
2022/03/22 01:46:34;;;;;;;48.33;27.85;;;;;;;6.66;77.98;103145.53;5028198;28;20476;-63
2022/03/22 01:49:00;;;;;;;57.83;29.23;;;;;;;6.73;77.91;103144.81;5009066;28;20049;-61
2022/03/22 01:51:26;;;;;;;55.22;30.58;;;;;;;6.74;77.75;103133.44;5007846;28;20302;-61
2022/03/22 01:53:51;;;;;;;55.08;29.33;;;;;;;6.78;77.75;103139.66;5001501;28;20037;-61
2022/03/22 01:56:17;;;;;;;52.83;27.40;;;;;;;6.74;77.78;103141.31;5028173;28;20024;-61
2022/03/22 01:58:42;;;;;;;59.75;31.67;;;;;;;6.75;77.79;103137.88;5026094;28;20431;-60
2022/03/22 02:06:39;;;;;;;48.65;26.85;;;;;;;6.84;77.54;103134.53;5027444;28;20052;-61
2022/03/22 02:09:05;;;;;;;47.53;27.67;;;;;;;6.82;77.52;103126.63;5028115;28;20164;-61
2022/03/22 02:11:31;;;;;;;51.00;27.83;;;;;;;6.86;77.61;103132.81;5009621;28;20121;-60
2022/03/22 02:13:56;;;;;;;55.17;29.33;;;;;;;6.90;77.72;103128.53;5024873;28;20022;-61
2022/03/22 02:16:22;;;;;;;52.83;29.40;;;;;;;6.89;77.51;103126.75;5028161;28;20398;-61
2022/03/22 02:18:49;;;;;;;54.20;29.00;;;;;;;6.85;77.87;103127.53;5027266;28;20025;-61
2022/03/22 02:21:15;;;;;;;61.95;32.10;;;;;;;6.93;77.47;103128.56;5026687;28;20033;-61
2022/03/22 02:23:51;;;;;;;55.70;30.88;;;;;;;7.01;77.32;103121.72;5010399;28;20124;-60
2022/03/22 02:26:20;;;;;;;53.88;29.58;;;;;;;7.02;76.87;103123.50;5026158;28;20025;-60
2022/03/22 02:28:46;;;;;;;60.25;29.85;;;;;;;7.05;77.20;103128.78;5009705;28;20438;-61
2022/03/22 02:31:13;;;;;;;49.70;29.88;;;;;;;7.08;76.93;103128.84;5026842;28;20108;-59
2022/03/22 02:33:42;;;;;;;48.60;27.30;;;;;;;7.03;77.08;103138.38;5033040;28;20021;-62
2022/03/22 02:36:08;;;;;;;59.63;32.78;;;;;;;6.97;77.14;103125.16;5031847;28;20029;-61
2022/03/22 02:38:33;;;;;;;54.25;26.92;;;;;;;6.96;77.16;103123.41;5026429;28;20031;-61
2022/03/22 02:40:59;;;;;;;59.97;31.85;;;;;;;7.00;77.25;103130.44;5026383;28;20120;-62
2022/03/22 02:43:24;;;;;;;59.38;31.63;;;;;;;6.92;77.45;103126.78;5026989;28;20326;-61
2022/03/22 02:45:49;;;;;;;51.40;30.15;;;;;;;6.89;77.58;103121.53;5046721;28;20041;-61
2022/03/22 02:48:15;;;;;;;54.13;31.52;;;;;;;6.87;77.71;103123.22;5044421;28;20142;-59
2022/03/22 02:50:40;;;;;;;59.00;30.90;;;;;;;6.78;78.02;103122.19;5007421;28;20079;-61
2022/03/22 02:53:05;;;;;;;59.63;32.08;;;;;;;6.76;77.90;103121.28;5014397;28;20021;-61
2022/03/22 02:55:32;;;;;;;57.95;30.50;;;;;;;6.77;78.16;103116.94;5020867;28;20102;-61
2022/03/22 02:57:58;;;;;;;56.65;30.98;;;;;;;6.75;78.39;103127.38;5016576;28;20495;-59
2022/03/22 03:00:24;;;;;;;65.40;33.38;;;;;;;6.72;78.31;103122.09;5017250;28;20054;-59
2022/03/22 03:02:52;;;;;;;52.90;31.10;;;;;;;6.74;78.58;103127.34;5017347;28;20045;-59
2022/03/22 03:05:19;;;;;;;61.15;34.13;;;;;;;6.76;78.40;103131.75;5017141;28;20040;-61
2022/03/22 03:07:44;;;;;;;56.67;31.27;;;;;;;6.80;78.33;103122.19;5016679;28;20456;-58
2022/03/22 03:10:10;;;;;;;56.97;31.10;;;;;;;6.80;78.44;103125.72;5015536;28;20021;-60
2022/03/22 03:12:36;;;;;;;58.95;31.90;;;;;;;6.87;78.24;103128.47;5020252;28;20072;-59
2022/03/22 03:15:02;;;;;;;54.60;30.00;;;;;;;6.82;78.46;103129.25;5016222;28;20113;-61
2022/03/22 03:17:29;;;;;;;57.88;31.92;;;;;;;6.78;78.56;103127.44;5014725;28;20037;-59
2022/03/22 03:19:54;;;;;;;56.25;31.45;;;;;;;6.80;78.43;103123.09;5024406;28;20060;-62
2022/03/22 03:22:20;;;;;;;57.63;30.33;;;;;;;6.76;78.70;103125.63;5040477;28;20106;-60
2022/03/22 03:24:45;;;;;;;62.92;31.45;;;;;;;6.77;78.66;103128.28;5046367;28;20522;-58
2022/03/22 03:27:10;;;;;;;62.10;34.17;;;;;;;6.79;78.71;103121.34;5045920;28;20075;-62
2022/03/22 03:29:36;;;;;;;64.10;33.08;;;;;;;6.73;79.09;103121.22;5046278;28;20025;-59
2022/03/22 03:32:01;;;;;;;56.47;29.75;;;;;;;6.74;79.00;103115.13;5046696;28;20024;-60
2022/03/22 03:34:26;;;;;;;55.33;31.50;;;;;;;6.71;79.26;103117.66;5046077;28;20040;-65
2022/03/22 03:36:52;;;;;;;63.85;35.88;;;;;;;6.69;79.46;103119.41;5046921;28;20039;-60
2022/03/22 03:39:17;;;;;;;60.55;33.75;;;;;;;6.67;79.63;103126.34;5046223;28;20080;-61
2022/03/22 03:41:55;;;;;;;58.75;32.50;;;;;;;6.63;79.92;103120.16;5046343;28;20025;-61
2022/03/22 03:47:15;;;;;;;62.92;32.17;;;;;;;6.52;80.17;103122.56;5046393;28;20110;-57
2022/03/22 03:49:49;;;;;;;57.92;30.08;;;;;;;6.49;79.98;103122.50;5045847;28;20070;-61
2022/03/22 03:52:17;;;;;;;61.25;31.98;;;;;;;6.41;80.25;103129.34;5028607;28;20024;-58
2022/03/22 03:54:43;;;;;;;56.35;30.27;;;;;;;6.37;80.67;103127.47;5045719;28;20063;-60
2022/03/22 03:57:09;;;;;;;49.50;28.02;;;;;;;6.32;80.79;103127.38;5025432;28;20041;-59
2022/03/22 03:59:36;;;;;;;61.80;33.85;;;;;;;6.32;80.95;103136.13;5025742;28;20033;-59
2022/03/22 04:02:03;;;;;;;58.22;32.78;;;;;;;6.28;81.37;103129.06;5026544;28;20046;-60
2022/03/22 04:04:28;;;;;;;57.70;30.42;;;;;;;6.25;81.35;103125.50;5024655;28;20044;-60
2022/03/22 04:06:53;;;;;;;69.93;34.90;;;;;;;6.25;81.44;103138.59;5026550;28;20029;-63
2022/03/22 04:09:19;;;;;;;59.05;33.33;;;;;;;6.24;81.50;103136.81;5024961;28;20079;-61
2022/03/22 04:11:45;;;;;;;56.88;32.35;;;;;;;6.28;81.41;103138.66;5026013;28;20026;-59
2022/03/22 04:14:11;;;;;;;53.80;32.30;;;;;;;6.28;81.58;103139.53;5025222;28;20057;-60
2022/03/22 04:16:36;;;;;;;56.33;31.35;;;;;;;6.23;81.54;103135.94;5026601;28;20079;-61
2022/03/22 04:19:02;;;;;;;64.47;32.78;;;;;;;6.18;81.90;103141.06;5026094;28;20395;-61
2022/03/22 04:21:28;;;;;;;65.60;33.85;;;;;;;6.14;82.06;103143.59;5026159;28;20083;-61
2022/03/22 04:23:53;;;;;;;61.30;32.38;;;;;;;6.09;82.14;103137.38;5025898;28;20022;-61
2022/03/22 04:26:18;;;;;;;59.65;32.03;;;;;;;6.13;82.20;103142.72;5024241;28;20021;-61
2022/03/22 04:34:11;;;;;;;63.70;32.33;;;;;;;6.16;82.25;103142.78;5024740;28;20032;-59
2022/03/22 04:36:37;;;;;;;63.03;33.08;;;;;;;6.22;82.40;103142.03;5025621;28;20407;-63
2022/03/22 04:39:02;;;;;;;60.90;33.83;;;;;;;6.29;82.40;103146.53;5025794;28;20035;-61
2022/03/22 04:41:28;;;;;;;62.25;34.05;;;;;;;6.26;82.26;103146.47;5024838;28;20025;-62
2022/03/22 04:43:53;;;;;;;61.72;33.15;;;;;;;6.26;82.63;103148.22;5024662;28;20332;-60
2022/03/22 04:46:19;;;;;;;57.30;30.83;;;;;;;6.28;82.33;103142.16;5025108;28;20014;-61
2022/03/22 04:48:45;;;;;;;63.13;32.72;;;;;;;6.28;82.26;103147.41;5024109;28;20025;-61
2022/03/22 04:56:48;;;;;;;68.03;32.25;;;;;;;6.28;82.49;103146.50;5024557;28;20506;-61
2022/03/22 04:59:19;;;;;;;54.10;30.67;;;;;;;6.27;83.04;103153.50;5023864;28;20021;-60
2022/03/22 05:01:45;;;;;;;55.20;30.33;;;;;;;6.27;82.63;103153.50;5024831;28;20511;-61
2022/03/22 05:04:10;;;;;;;58.42;33.63;;;;;;;6.33;82.73;103160.59;5024255;28;20037;-61
2022/03/22 05:06:37;;;;;;;61.78;33.95;;;;;;;6.35;82.83;103160.63;5025633;28;20020;-61
2022/03/22 05:09:06;;;;;;;69.72;35.10;;;;;;;6.37;82.73;103156.28;5025717;28;20530;-59
2022/03/22 05:11:31;;;;;;;51.53;27.60;;;;;;;6.40;82.60;103153.72;5023304;28;20014;-62
2022/03/22 05:13:57;;;;;;;53.25;29.38;;;;;;;6.43;82.59;103154.69;5024053;28;20028;-60
2022/03/22 05:16:26;;;;;;;60.10;32.78;;;;;;;6.45;82.54;103152.97;5006941;28;20022;-60
2022/03/22 05:18:52;;;;;;;60.70;31.20;;;;;;;6.47;82.21;103155.63;5023975;28;20076;-63
2022/03/22 05:21:18;;;;;;;53.90;31.25;;;;;;;6.47;82.43;103158.25;5024385;28;20033;-63
2022/03/22 05:23:46;;;;;;;56.08;31.95;;;;;;;6.45;82.24;103158.22;5024412;28;20021;-61
2022/03/22 05:26:13;;;;;;;56.33;29.43;;;;;;;6.44;82.15;103158.19;5024981;28;20030;-61
2022/03/22 05:28:38;;;;;;;56.22;31.70;;;;;;;6.42;82.24;103163.38;5024341;28;20028;-61
2022/03/22 05:31:05;;;;;;;49.22;28.73;;;;;;;6.41;82.08;103166.88;5025450;28;20034;-59
2022/03/22 05:33:30;;;;;;;48.50;28.00;;;;;;;6.39;82.33;103167.69;5024809;28;20091;-60
2022/03/22 05:35:56;;;;;;;53.78;29.58;;;;;;;6.36;82.35;103171.13;5025448;28;20136;-61
2022/03/22 05:38:21;;;;;;;46.13;27.08;;;;;;;6.30;82.48;103169.25;5024673;28;20041;-59
2022/03/22 05:40:47;;;;;;;46.45;24.88;;;;;;;6.30;82.49;103168.38;5024579;28;20115;-61
2022/03/22 05:43:13;;;;;;;46.03;26.20;;;;;;;6.29;82.44;103177.09;5023187;28;20021;-60
2022/03/22 05:45:39;;;;;;;47.30;27.42;;;;;;;6.26;82.40;103171.78;5024787;28;20025;-60
2022/03/22 05:48:07;;;;;;;52.72;28.52;;;;;;;6.20;82.49;103177.75;5025278;28;20029;-62
2022/03/22 05:50:33;;;;;;;51.05;29.90;;;;;;;6.19;82.58;103176.00;5033482;28;20029;-61
2022/03/22 05:52:58;;;;;;;54.63;30.63;;;;;;;6.17;82.74;103181.19;5048488;28;20062;-62
2022/03/22 05:55:24;;;;;;;57.00;29.73;;;;;;;6.16;82.81;103174.19;5047643;28;20044;-59
2022/03/22 05:57:49;;;;;;;61.45;32.28;;;;;;;6.09;82.76;103168.78;5046839;28;20029;-61
2022/03/22 06:00:15;;;;;;;50.33;29.63;;;;;;;6.04;82.79;103180.03;5028575;28;20475;-60
2022/03/22 06:02:41;;;;;;;56.70;31.92;;;;;;;6.02;83.12;103179.06;5006759;28;20052;-61
2022/03/22 06:05:11;;;;;;;51.47;28.65;;;;;;;6.02;83.29;103188.69;5006832;28;20034;-60
2022/03/22 06:07:37;;;;;;;50.53;27.95;;;;;;;6.03;83.27;103180.88;5007626;28;20103;-61
2022/03/22 06:10:04;;;;;;;51.88;28.85;;;;;;;6.05;83.28;103187.03;5008147;28;20031;-61
2022/03/22 06:12:41;;;;;;;52.08;29.48;;;;;;;6.08;83.47;103186.22;5007560;28;20057;-59
2022/03/22 06:15:15;;;;;;;57.85;32.67;;;;;;;6.18;83.38;103182.09;5006597;28;20038;-64
2022/03/22 06:17:41;;;;;;;52.40;27.38;;;;;;;6.24;83.18;103184.84;5007617;28;20034;-59
2022/03/22 06:20:07;;;;;;;54.10;29.60;;;;;;;6.30;83.22;103192.81;5008697;28;20273;-62
2022/03/22 06:22:32;;;;;;;55.40;28.75;;;;;;;6.34;83.05;103183.31;5008732;28;20499;-60
2022/03/22 06:24:58;;;;;;;48.88;28.30;;;;;;;6.37;82.96;103190.31;4997061;28;20026;-59
2022/03/22 06:27:23;;;;;;;51.78;29.23;;;;;;;6.48;82.77;103201.94;5005247;28;20033;-59
2022/03/22 06:29:48;;;;;;;52.25;30.27;;;;;;;6.62;82.40;103209.22;5006448;28;20033;-61
2022/03/22 06:32:13;;;;;;;51.95;28.98;;;;;;;6.69;82.08;103205.88;5007755;28;20026;-60
2022/03/22 06:34:39;;;;;;;45.30;26.67;;;;;;;6.75;81.88;103208.63;5006198;28;20025;-61
2022/03/22 06:37:05;;;;;;;45.00;27.63;;;;;;;6.86;81.83;103210.56;4999430;28;20403;-58
2022/03/22 06:39:30;;;;;;;49.65;27.85;;;;;;;6.96;81.30;103204.66;4997162;28;20163;-58
2022/03/22 06:41:55;;;;;;;47.65;27.90;;;;;;;7.07;80.99;103210.97;4996644;28;21012;-52
2022/03/22 06:44:21;;;;;;;41.60;24.55;;;;;;;7.15;80.55;103208.50;4997399;28;20455;-56
2022/03/22 06:46:46;;;;;;;50.45;28.30;;;;;;;7.26;80.23;103213.97;5006613;28;20022;-56
2022/03/22 06:49:12;;;;;;;42.30;24.00;;;;;;;7.31;80.17;103212.28;5008086;28;20465;-57
2022/03/22 06:51:37;;;;;;;45.00;28.05;;;;;;;7.42;79.81;103211.59;5004296;28;20028;-57
2022/03/22 06:54:03;;;;;;;45.85;26.13;;;;;;;7.53;79.26;103215.28;5006926;28;20025;-53
2022/03/22 06:56:28;;;;;;;44.92;26.13;;;;;;;7.65;78.68;103219.84;5006337;28;20071;-56
2022/03/22 06:58:53;;;;;;;46.03;26.83;;;;;;;7.76;78.21;103221.75;5005683;28;20048;-56
2022/03/22 07:01:19;;;;;;;43.97;25.77;;;;;;;7.87;77.56;103216.69;5008885;28;20045;-57
2022/03/22 07:03:44;;;;;;;43.95;25.33;;;;;;;7.99;77.16;103224.78;5026320;28;20045;-55
2022/03/22 07:06:09;;;;;;;47.00;25.88;;;;;;;8.09;76.76;103217.91;5025127;28;20021;-57
2022/03/22 07:08:35;;;;;;;40.53;25.83;;;;;;;8.21;76.28;103219.84;5026242;28;20325;-57
2022/03/22 07:13:44;;;;;;;41.28;25.60;;;;;;;8.43;75.49;103212.28;5026026;28;20032;-57
2022/03/22 07:16:09;;;;;;;39.95;23.40;;;;;;;8.46;75.33;103220.19;5026119;28;20014;-60
2022/03/22 07:18:34;;;;;;;42.70;27.10;;;;;;;8.55;74.77;103215.06;5026677;28;20041;-60
2022/03/22 07:21:04;;;;;;;40.70;24.60;;;;;;;8.63;74.68;103214.28;5026401;28;20029;-61
2022/03/22 07:23:29;;;;;;;42.85;25.63;;;;;;;8.72;74.28;103220.56;5023754;28;20040;-60
2022/03/22 07:25:55;;;;;;;39.28;25.73;;;;;;;8.79;74.42;103218.88;4997199;28;20037;-58
2022/03/22 07:28:20;;;;;;;38.72;22.70;;;;;;;8.92;74.02;103219.03;5015708;28;20021;-60
2022/03/22 07:30:45;;;;;;;34.92;21.90;;;;;;;9.00;73.43;103224.38;5021239;28;20087;-60
2022/03/22 07:33:11;;;;;;;47.10;25.63;;;;;;;9.01;72.73;103216.50;5015033;28;20010;-61
2022/03/22 07:35:36;;;;;;;40.58;25.10;;;;;;;9.10;72.63;103223.59;5022033;28;20522;-63
2022/03/22 07:38:02;;;;;;;36.15;23.13;;;;;;;9.23;72.37;103225.50;5026702;28;20025;-60
2022/03/22 07:40:27;;;;;;;37.53;22.58;;;;;;;9.35;72.09;103227.38;5025309;28;20091;-61
2022/03/22 07:42:52;;;;;;;40.05;24.75;;;;;;;9.44;71.64;103236.22;5025576;28;20025;-62
2022/03/22 07:45:19;;;;;;;33.17;20.40;;;;;;;9.52;70.96;103226.66;5017208;28;20522;-61
2022/03/22 07:47:45;;;;;;;37.80;22.05;;;;;;;9.61;70.64;103226.72;5044999;28;20211;-60
2022/03/22 07:53:07;;;;;;;49.67;23.17;;;;;;;9.77;69.75;103234.75;5035134;28;20130;-60
2022/03/22 07:55:35;;;;;;;37.80;23.33;;;;;;;9.84;69.05;103239.19;5014233;28;20040;-56
2022/03/22 07:58:00;;;;;;;33.45;20.30;;;;;;;9.98;69.14;103243.69;5025481;28;20375;-57
2022/03/22 08:00:26;;;;;;;43.30;23.20;;;;;;;10.06;68.67;103255.13;5024326;28;20355;-56
2022/03/22 08:02:56;;;;;;;38.75;22.30;;;;;;;10.07;68.17;103249.03;5024585;28;20167;-59
2022/03/22 08:05:24;;;;;;;35.28;21.80;;;;;;;10.10;68.19;103241.16;5020368;28;20484;-57
2022/03/22 08:07:49;;;;;;;40.25;20.65;;;;;;;10.24;67.89;103246.47;5019467;28;20388;-57
2022/03/22 08:10:15;;;;;;;30.08;17.65;;;;;;;10.34;67.85;103244.81;5021415;28;20021;-60
2022/03/22 08:12:42;;;;;;;34.22;21.35;;;;;;;10.47;67.30;103251.06;5020659;28;20025;-61
2022/03/22 08:15:10;;;;;;;32.92;22.05;;;;;;;10.52;67.34;103244.91;5022187;28;20024;-60
2022/03/22 08:17:37;;;;;;;38.17;20.85;;;;;;;10.63;66.48;103244.97;5024878;28;20045;-61
2022/03/22 08:20:04;;;;;;;33.17;20.08;;;;;;;10.74;66.15;103252.06;5026577;28;20021;-61
2022/03/22 08:22:29;;;;;;;40.60;20.90;;;;;;;10.76;65.88;103252.06;5024355;28;20446;-62
2022/03/22 08:24:54;;;;;;;37.15;21.38;;;;;;;10.80;65.66;103256.47;5024001;28;20025;-61
2022/03/22 08:27:20;;;;;;;33.72;18.77;;;;;;;10.90;66.24;103253.88;5024708;28;20021;-55
2022/03/22 08:29:45;;;;;;;40.50;21.08;;;;;;;10.92;65.75;103258.28;5024015;28;20029;-62
2022/03/22 08:32:10;;;;;;;33.80;20.95;;;;;;;10.91;65.73;103264.44;5024430;28;20036;-62
2022/03/22 08:34:36;;;;;;;32.50;19.48;;;;;;;11.00;65.73;103260.94;5024774;28;20033;-61
2022/03/22 08:37:03;;;;;;;33.58;20.85;;;;;;;11.07;65.69;103261.81;5024893;28;20043;-63
2022/03/22 08:39:28;;;;;;;36.08;20.55;;;;;;;11.17;65.58;103268.03;5020971;28;20033;-62
2022/03/22 08:41:53;;;;;;;26.45;16.90;;;;;;;11.26;65.34;103260.16;4987846;28;20033;-61
2022/03/22 08:44:20;;;;;;;30.33;18.92;;;;;;;11.38;65.00;103267.22;4986805;28;20046;-62
2022/03/22 08:46:46;;;;;;;33.05;18.95;;;;;;;11.48;64.87;103262.81;5001246;28;20025;-62
2022/03/22 08:49:11;;;;;;;26.45;17.25;;;;;;;11.63;64.61;103264.59;5003349;28;20037;-62
2022/03/22 08:51:36;;;;;;;33.30;20.55;;;;;;;11.70;64.34;103273.38;5004105;28;20104;-59
2022/03/22 08:54:02;;;;;;;35.30;19.38;;;;;;;11.65;63.65;103273.38;5004119;28;20020;-62
2022/03/22 08:56:27;;;;;;;31.05;18.60;;;;;;;11.71;64.19;103269.88;5003689;28;20067;-61
2022/03/22 08:58:53;;;;;;;36.05;18.95;;;;;;;11.88;63.46;103269.84;5006100;28;20087;-61
2022/03/22 09:01:22;;;;;;;30.98;19.85;;;;;;;12.03;63.25;103271.63;5007874;28;20049;-61
2022/03/22 09:06:07;;;;;;;32.35;18.55;;;;;;;12.15;63.15;103275.16;4988337;28;20354;-63
2022/03/22 09:06:33;;;;;;;28.58;17.17;;;;;;;12.33;62.62;103277.78;4984660;28;20022;-62
2022/03/22 09:08:58;;;;;;;24.98;17.58;;;;;;;12.43;62.49;103273.34;4988780;28;20026;-63
2022/03/22 09:11:24;;;;;;;30.58;18.70;;;;;;;12.47;62.13;103279.50;4997181;28;20022;-61
2022/03/22 09:13:54;;;;;;;27.27;18.02;;;;;;;12.50;62.12;103271.56;5003316;28;20089;-62
2022/03/22 09:16:21;;;;;;;35.45;18.77;;;;;;;12.49;62.49;103278.59;5003582;28;20033;-62
2022/03/22 09:18:47;;;;;;;24.33;18.02;;;;;;;12.63;62.17;103265.34;5004151;28;20037;-61
2022/03/22 09:21:12;;;;;;;24.65;15.57;;;;;;;12.83;62.61;103263.50;5024061;28;20029;-61
2022/03/22 09:23:40;;;;;;;25.65;17.98;;;;;;;12.79;61.82;103272.34;5024961;28;20036;-60
2022/03/22 09:26:05;;;;;;;29.33;18.83;;;;;;;12.88;61.91;103264.34;5010356;28;20147;-62
2022/03/22 09:28:31;;;;;;;27.23;18.83;;;;;;;12.95;61.96;103262.56;5003477;28;20171;-62
2022/03/22 09:30:56;;;;;;;29.73;19.10;;;;;;;13.07;61.65;103262.50;5001815;28;21082;-63
2022/03/22 09:33:22;;;;;;;26.98;17.98;;;;;;;13.23;61.27;103262.41;4998302;28;20029;-61
2022/03/22 09:35:48;;;;;;;30.58;19.30;;;;;;;13.26;61.34;103259.75;5006418;28;20071;-62
2022/03/22 09:38:14;;;;;;;31.13;16.92;;;;;;;13.37;60.57;103264.97;4997767;28;20029;-62
2022/03/22 09:40:39;;;;;;;23.65;16.48;;;;;;;13.44;60.47;103271.09;5001862;28;20057;-61
2022/03/22 09:43:07;;;;;;;32.90;18.70;;;;;;;13.34;60.76;103265.84;5005877;28;20052;-62
2022/03/22 09:45:33;;;;;;;28.25;19.08;;;;;;;13.42;61.33;103265.81;5006727;28;20522;-63
2022/03/22 09:47:59;;;;;;;34.50;18.73;;;;;;;13.60;61.11;103263.94;5007517;28;20067;-61
2022/03/22 09:53:12;;;;;;;30.95;18.02;;;;;;;13.82;58.90;103269.94;5020341;28;20036;-61
2022/03/22 09:55:37;;;;;;;27.52;18.27;;;;;;;13.81;58.82;103262.88;5006025;28;20025;-63
2022/03/22 09:58:03;;;;;;;29.15;18.40;;;;;;;13.96;59.09;103268.94;5006201;28;20368;-60
2022/03/22 10:00:28;;;;;;;28.80;19.02;;;;;;;14.03;58.63;103257.41;5007355;28;20037;-63
2022/03/22 10:02:53;;;;;;;27.73;18.08;;;;;;;14.11;58.09;103266.16;5007252;28;20499;-62
2022/03/22 10:05:29;;;;;;;28.58;16.75;;;;;;;14.39;58.22;103257.88;5000358;28;20408;-64
2022/03/22 10:07:59;;;;;;;25.65;17.33;;;;;;;14.52;57.60;103257.75;4997893;28;20385;-62
2022/03/22 10:10:25;;;;;;;30.05;18.02;;;;;;;14.62;56.89;103255.84;4994718;28;20396;-61
2022/03/22 10:13:04;;;;;;;29.92;17.67;;;;;;;14.59;56.58;103259.44;4997500;28;20025;-61
2022/03/22 10:15:34;;;;;;;29.40;18.95;;;;;;;14.63;56.80;103250.53;5020623;28;20037;-61
2022/03/22 10:18:05;;;;;;;30.83;19.30;;;;;;;14.71;56.25;103253.09;5027638;28;20449;-61
2022/03/22 10:20:32;;;;;;;29.60;17.67;;;;;;;14.79;56.06;103255.69;5027440;28;20117;-60
2022/03/22 10:22:59;;;;;;;30.42;17.00;;;;;;;15.00;55.71;103253.66;5004891;28;20069;-61
2022/03/22 10:25:24;;;;;;;28.00;16.75;;;;;;;15.23;54.96;103263.06;5006264;28;20406;-62
2022/03/22 10:27:54;;;;;;;27.92;17.38;;;;;;;15.31;54.78;103255.84;4997816;28;20037;-62
2022/03/22 10:30:20;;;;;;;25.02;16.60;;;;;;;15.51;54.71;103258.16;4997210;28;20022;-62
2022/03/22 10:32:51;;;;;;;27.00;16.10;;;;;;;15.73;54.46;103257.84;4996851;28;20026;-62
2022/03/22 10:35:20;;;;;;;26.38;16.40;;;;;;;15.90;52.74;103257.53;5002911;28;20475;-60
2022/03/22 10:37:46;;;;;;;;;;;;;;;15.89;51.39;103253.13;5007040;28;20498;-60
2022/03/22 10:40:23;;;;;;;29.20;17.45;;;;;;;16.01;51.40;103248.50;5005066;28;19913;-63
2022/03/22 10:42:54;;;;;;;30.13;17.50;;;;;;;16.16;51.84;103258.88;5006619;28;20085;-62
2022/03/22 10:45:20;;;;;;;29.35;16.58;;;;;;;16.20;52.04;103256.16;5004602;28;20061;-63
2022/03/22 10:47:46;;;;;;;33.85;17.17;;;;;;;16.35;51.30;103255.88;5007508;28;20057;-61
2022/03/22 10:50:12;;;;;;;24.45;15.55;;;;;;;16.53;49.92;103253.72;5010220;28;20017;-61
2022/03/22 10:53:12;;;;;;;25.90;15.18;;;;;;;16.61;49.59;103251.78;5045551;28;20329;-61
2022/03/22 10:55:38;;;;;;;27.30;14.68;;;;;;;16.80;48.84;103243.41;4998553;28;20048;-61
2022/03/22 10:58:03;;;;;;;24.88;14.80;;;;;;;16.70;49.57;103244.53;5026925;28;20033;-63
2022/03/22 11:00:30;;;;;;;29.60;15.73;;;;;;;16.89;49.58;103239.66;5024432;28;20124;-62
2022/03/22 11:02:56;;;;;;;27.27;14.70;;;;;;;17.06;47.75;103244.59;5022886;28;20481;-62
2022/03/22 11:05:24;;;;;;;23.70;13.85;;;;;;;17.20;46.78;103244.31;5015512;28;20053;-62
2022/03/22 11:07:52;;;;;;;23.10;12.70;;;;;;;17.26;43.78;103245.94;5016131;28;20492;-62
2022/03/22 11:10:25;;;;;;;24.38;14.00;;;;;;;17.41;43.11;103248.25;5013673;28;20381;-57
2022/03/22 11:12:51;;;;;;;30.00;13.77;;;;;;;17.75;44.23;103250.97;5016194;28;20021;-58
2022/03/22 11:15:17;;;;;;;24.33;14.30;;;;;;;18.07;43.69;103243.91;5022007;28;20068;-56
2022/03/22 11:17:42;;;;;;;21.88;13.43;;;;;;;18.09;43.38;103241.19;4996773;28;20113;-56
2022/03/22 11:20:10;;;;;;;18.67;12.05;;;;;;;18.33;41.22;103241.47;5013904;28;20029;-57
2022/03/22 11:22:36;;;;;;;20.52;12.25;;;;;;;18.47;40.92;103233.91;5015373;28;20496;-63
2022/03/22 11:25:12;;;;;;;22.35;12.43;;;;;;;18.48;41.21;103242.81;5006301;28;20069;-62
2022/03/22 11:27:38;;;;;;;21.33;12.85;;;;;;;18.64;41.87;103233.44;5018936;28;20065;-60
2022/03/22 11:30:06;;;;;;;22.05;13.10;;;;;;;18.84;40.84;103236.41;5016044;28;20029;-61
2022/03/22 11:35:16;;;;;;;21.88;11.93;;;;;;;19.11;39.35;103229.31;5014803;28;20092;-60
2022/03/22 11:37:42;;;;;;;19.63;11.68;;;;;;;19.34;38.92;103233.06;5017966;28;20022;-60
2022/03/22 11:43:10;;;;;;;17.95;10.73;;;;;;;20.04;37.42;103233.34;5020367;28;20044;-59
2022/03/22 11:45:46;;;;;;;24.52;12.52;;;;;;;19.74;38.68;103229.97;5015277;28;20076;-58